Date,TemperatureHighF,TemperatureAvgF,TemperatureLowF,DewpointHighF,DewpointAvgF,DewpointLowF,HumidityHigh,HumidityAvg,HumidityLow,PressureMaxIn,PressureMinIn,WindSpeedMaxMPH,WindSpeedAvgMPH,GustSpeedMaxMPH,PrecipitationSumIn
2013-1-1,51,39,31,38,33,30,97,82,46,30.33,30.24,4,1,5,0.00
2013-1-2,54,39,28,38,32,27,96,80,48,30.30,30.18,2,0,3,0.00
2013-1-3,53,38,29,39,33,28,97,83,52,30.30,30.22,2,0,2,0.00
2013-1-4,55,40,29,43,36,28,96,85,61,30.34,30.23,3,0,5,0.00
2013-1-5,53,43,32,44,39,31,97,89,68,30.31,30.13,2,0,3,0.36
2013-1-6,52,45,36,46,42,35,98,92,75,30.22,30.12,3,0,5,0.32
2013-1-7,48,39,34,45,38,33,98,96,87,30.29,30.17,5,1,8,0.01
2013-1-8,55,43,34,47,40,33,99,89,72,30.29,30.18,2,0,3,0.00
2013-1-9,51,44,37,47,42,36,98,91,77,30.22,29.95,4,1,8,0.04
2013-1-10,48,39,30,39,34,28,98,83,54,30.19,30.05,4,1,8,0.00
2013-1-11,50,36,27,36,30,26,96,80,45,30.27,30.16,2,0,4,0.00
2013-1-12,45,34,25,30,26,20,96,74,37,30.28,30.18,2,0,3,0.00
2013-1-13,44,34,22,30,25,17,95,72,46,30.30,30.19,3,1,6,0.00
2013-1-14,49,36,24,28,22,16,87,59,30,30.44,30.24,3,1,5,0.00
2013-1-15,51,38,28,34,30,26,92,75,50,30.53,30.43,2,0,3,0.00
2013-1-16,56,40,28,38,32,26,95,77,45,30.49,30.32,3,0,4,0.00
2013-1-17,60,41,28,39,33,26,96,76,39,30.33,30.20,2,0,2,0.00
2013-1-18,60,42,29,38,34,28,95,74,39,30.28,30.18,2,0,3,0.00
2013-1-19,61,43,30,38,34,28,95,73,38,30.31,30.20,3,0,4,0.00
2013-1-20,61,43,29,38,34,28,96,73,36,30.28,30.16,2,0,3,0.00
2013-1-21,62,44,30,40,35,29,96,75,41,30.23,30.15,2,0,4,0.00
2013-1-22,63,46,31,43,37,30,95,76,43,30.19,30.06,4,0,5,0.00
2013-1-23,60,49,42,49,43,39,96,83,51,30.13,30.01,2,0,3,0.07
2013-1-24,55,51,48,53,50,47,97,95,86,30.22,30.10,4,1,7,0.05
2013-1-25,65,56,52,57,53,50,99,90,70,30.22,30.06,3,0,4,0.00
2013-1-26,60,53,45,53,48,41,98,85,54,30.06,29.95,4,2,6,0.00
2013-1-27,53,44,35,41,38,33,97,79,48,30.18,30.04,3,1,7,0.01
2013-1-28,56,43,32,39,35,30,96,77,46,30.28,30.16,4,1,6,0.00
2013-1-29,58,45,35,41,37,33,96,78,49,30.36,30.26,5,1,8,0.00
2013-1-30,60,46,34,45,40,33,95,80,57,30.38,30.29,4,1,6,0.00
2013-1-31,63,48,35,48,42,34,97,80,56,30.34,30.22,2,0,3,0.00
2013-2-1,66,49,34,49,42,33,96,78,50,30.26,30.16,2,0,3,0.00
2013-2-2,65,50,40,48,43,38,95,80,50,30.31,30.22,2,0,4,0.00
2013-2-3,62,48,38,49,43,37,97,84,59,30.26,30.14,3,0,4,0.00
2013-2-4,64,50,38,49,44,37,96,81,54,30.20,30.07,2,0,5,0.00
2013-2-5,55,46,39,46,42,37,97,87,69,30.15,30.06,5,1,8,0.00
2013-2-6,60,46,34,44,39,33,97,78,43,30.20,30.12,3,1,5,0.00
2013-2-7,55,47,41,46,40,36,91,79,53,30.19,30.01,4,2,8,0.00
2013-2-8,56,44,34,41,34,29,95,71,41,30.02,29.92,4,1,9,0.00
2013-2-9,56,41,29,35,31,26,90,70,35,30.12,29.98,3,1,7,0.00
2013-2-10,59,44,31,39,35,30,94,73,45,30.16,30.02,3,1,5,0.00
2013-2-11,60,46,32,38,34,29,91,67,41,30.27,30.09,3,1,6,0.00
2013-2-12,61,47,34,40,37,32,92,70,43,30.40,30.27,2,0,4,0.00
2013-2-13,63,48,34,42,38,32,94,73,44,30.36,30.23,3,0,4,0.00
2013-2-14,67,50,35,47,41,34,95,74,43,30.29,30.18,3,1,5,0.00
2013-2-15,71,53,38,47,42,36,93,70,37,30.32,30.24,2,0,4,0.00
2013-2-16,68,51,39,42,40,36,91,69,36,30.28,30.04,2,0,3,0.00
2013-2-17,65,50,37,46,41,35,95,73,45,30.06,29.97,3,1,4,0.00
2013-2-18,60,48,37,46,40,35,94,77,59,30.04,29.93,5,2,7,0.00
2013-2-19,46,42,35,42,38,34,95,86,77,29.96,29.76,5,2,9,0.27
2013-2-20,59,43,30,40,33,29,97,74,36,30.05,29.85,6,2,16,0.00
2013-2-21,60,46,35,41,35,30,93,68,34,30.17,30.06,5,2,7,0.00
2013-2-22,62,48,32,41,37,30,94,67,38,30.27,30.16,5,1,7,0.00
2013-2-23,59,50,41,44,34,22,93,58,30,30.25,30.15,7,3,12,0.00
2013-2-24,62,49,38,34,29,23,64,47,25,30.26,30.17,6,2,8,0.00
2013-2-25,63,49,36,40,34,31,88,60,34,30.30,30.18,3,1,5,0.00
2013-2-26,64,49,34,34,31,26,88,55,24,30.23,30.13,8,2,9,0.00
2013-2-27,68,51,34,43,35,30,84,58,28,30.37,30.21,5,1,7,0.00
2013-2-28,52,46,43,40,39,38,83,76,60,30.42,30.36,1,0,1,0.00
2013-3-1,73,56,40,49,45,38,91,68,40,30.44,30.26,2,0,4,0.00
2013-3-2,71,59,46,52,48,43,90,69,42,30.27,30.07,3,0,4,0.00
2013-3-3,64,58,50,54,50,46,86,75,66,30.09,30.02,4,1,6,0.00
2013-3-4,67,53,44,52,47,43,96,81,56,30.15,30.03,4,1,7,0.00
2013-3-5,61,52,44,44,42,38,86,70,44,30.07,29.87,5,2,7,0.05
2013-3-6,58,51,46,46,42,37,92,73,48,30.09,29.87,7,2,10,0.18
2013-3-7,58,49,38,43,40,36,96,74,49,30.03,29.88,4,1,5,0.00
2013-3-8,64,51,36,45,40,35,95,70,35,30.04,29.83,5,2,10,0.00
2013-3-9,70,53,38,46,38,31,94,63,25,30.30,30.05,6,2,10,0.00
2013-3-10,66,52,36,46,41,33,89,68,44,30.38,30.27,4,1,6,0.00
2013-3-11,74,56,40,48,44,38,95,67,30,30.28,30.11,3,1,4,0.00
2013-3-12,76,60,42,50,47,40,94,67,39,30.18,30.07,3,0,5,0.00
2013-3-13,77,61,45,54,50,43,94,69,38,30.19,30.08,3,0,5,0.00
2013-3-14,79,63,48,55,50,46,92,67,36,30.16,30.07,2,0,4,0.00
2013-3-15,76,60,48,54,50,45,95,71,34,30.12,30.01,3,0,6,0.00
2013-3-16,76,60,45,52,46,35,95,65,23,30.08,29.98,3,1,8,0.00
2013-3-17,70,57,41,45,41,35,91,58,29,30.14,30.02,4,1,6,0.00
2013-3-18,69,56,41,46,42,38,93,61,36,30.11,30.02,3,0,5,0.00
2013-3-19,71,59,48,53,46,43,94,66,37,30.15,30.06,3,1,5,0.12
2013-3-20,61,56,52,58,54,50,97,91,83,30.13,30.08,4,1,9,0.44
2013-3-21,66,54,45,51,44,28,98,73,27,30.13,30.00,4,1,8,0.01
2013-3-22,64,53,42,34,28,19,61,42,19,30.10,30.02,7,4,9,0.00
2013-3-23,68,53,41,41,32,25,76,48,20,30.16,30.04,3,1,7,0.00
2013-3-24,73,57,41,45,40,37,89,58,27,30.11,29.95,4,1,6,0.00
2013-3-25,71,57,44,48,44,39,89,64,38,30.01,29.91,5,1,10,0.00
2013-3-26,72,58,46,49,46,42,87,67,38,30.01,29.91,4,1,10,0.00
2013-3-27,70,59,48,54,49,44,85,70,52,30.03,29.94,4,1,10,0.00
2013-3-28,69,61,54,54,52,50,91,74,54,30.11,30.03,2,0,7,0.00
2013-3-29,78,62,46,52,50,45,97,69,35,30.11,30.01,2,0,7,0.00
2013-3-30,77,63,50,56,51,47,92,68,41,30.05,29.96,3,1,9,0.00
2013-3-31,70,60,55,57,53,48,97,79,48,30.11,29.99,3,1,10,0.88
2013-4-1,70,59,50,54,51,50,97,77,51,30.16,30.07,2,0,7,0.00
2013-4-2,72,59,46,56,51,45,97,76,49,30.18,30.06,3,1,10,0.00
2013-4-3,76,62,48,56,52,47,96,73,47,30.15,29.97,2,0,6,0.00
2013-4-4,65,58,52,59,53,46,95,85,64,30.13,29.99,4,1,10,0.30
2013-4-5,68,60,54,54,52,50,94,78,56,30.17,30.10,3,1,8,0.00
2013-4-6,67,58,52,56,52,49,90,81,63,30.20,30.10,3,2,9,0.00
2013-4-7,68,58,52,56,50,45,90,75,58,30.15,29.81,4,2,13,0.00
2013-4-8,67,57,48,48,39,31,92,55,26,30.01,29.75,8,3,23,0.00
2013-4-9,74,61,48,43,37,34,66,44,24,30.09,30.01,7,3,23,0.00
2013-4-10,85,67,48,57,46,37,78,49,28,30.19,29.96,2,1,9,0.00
2013-4-11,77,65,54,54,48,40,90,59,27,29.99,29.81,4,1,12,0.00
2013-4-12,80,64,49,54,47,37,88,60,21,29.90,29.78,2,0,6,0.00
2013-4-13,76,63,50,54,49,45,83,62,42,29.88,29.77,3,1,7,0.00
2013-4-14,73,60,45,48,42,30,94,57,21,29.91,29.74,3,1,10,0.00
2013-4-15,60,51,46,47,45,39,92,79,54,29.90,29.81,4,1,10,0.11
2013-4-16,67,54,43,40,31,24,84,46,20,30.14,29.89,6,3,11,0.00
2013-4-17,68,57,43,35,29,23,61,37,20,30.23,30.14,7,3,18,0.00
2013-4-18,75,58,40,44,35,29,82,46,19,30.25,30.15,3,0,11,0.00
2013-4-19,81,64,47,50,45,42,87,55,28,30.22,30.01,3,0,6,0.00
2013-4-20,82,66,54,50,43,31,77,48,18,30.08,29.92,4,1,7,0.00
2013-4-21,85,67,48,53,47,40,89,54,21,30.01,29.88,3,0,5,0.00
2013-4-22,87,69,52,52,45,32,88,49,15,29.93,29.79,4,1,10,0.00
2013-4-23,83,68,55,44,35,28,54,32,14,29.90,29.78,4,2,9,0.00
2013-4-24,88,68,49,52,42,29,83,47,13,29.84,29.70,4,1,10,0.00
2013-4-25,74,61,51,52,49,47,88,68,42,30.07,29.84,6,3,8,0.00
2013-4-26,81,64,49,54,51,46,90,66,36,30.18,30.07,3,1,8,0.00
2013-4-27,87,68,51,58,53,48,88,62,34,30.19,29.98,2,0,7,0.00
2013-4-28,88,71,54,57,53,50,88,56,27,30.01,29.82,2,0,3,0.00
2013-4-29,88,72,56,57,52,43,90,54,21,29.85,29.69,4,1,5,0.00
2013-4-30,82,72,62,56,36,22,77,30,12,29.81,29.70,5,2,8,0.00
2013-5-1,87,72,57,45,31,23,43,24,11,30.03,29.81,4,2,11,0.00
2013-5-2,89,72,52,50,37,25,61,31,13,30.14,30.01,2,0,7,0.00
2013-5-3,90,74,54,54,47,37,77,43,16,30.03,29.73,2,0,4,0.00
2013-5-4,88,73,54,52,45,34,82,43,15,29.74,29.46,4,1,7,0.00
2013-5-5,74,64,54,51,49,45,81,59,36,29.78,29.52,4,2,7,0.00
2013-5-6,72,64,58,56,53,50,89,69,49,29.93,29.78,4,1,7,0.00
2013-5-7,72,64,58,56,54,51,90,70,50,29.99,29.93,3,1,5,0.00
2013-5-8,75,65,57,55,52,50,87,66,44,30.09,29.98,3,1,7,0.00
2013-5-9,82,66,52,59,54,49,90,67,41,30.10,29.98,3,1,7,0.00
2013-5-10,85,68,53,62,56,50,90,66,42,30.13,29.99,3,1,5,0.00
2013-5-11,92,75,57,63,58,53,86,58,36,30.08,29.96,2,0,4,0.00
2013-5-12,93,78,61,59,51,37,73,44,14,30.07,29.93,3,1,6,0.00
2013-5-13,92,75,58,58,51,46,68,46,21,30.01,29.85,2,1,4,0.00
2013-5-14,88,73,58,60,55,48,81,56,33,29.88,29.80,4,1,6,0.00
2013-5-15,78,67,56,51,48,45,68,53,36,29.98,29.88,3,2,7,0.00
2013-5-16,74,64,57,55,51,47,75,64,44,29.98,29.87,6,3,13,0.00
2013-5-17,75,63,52,54,47,40,83,59,29,30.02,29.91,4,2,10,0.00
2013-5-18,81,65,49,52,46,39,81,54,23,30.09,29.99,3,1,9,0.00
2013-5-19,84,70,53,52,47,41,86,50,23,30.07,29.91,4,1,9,0.00
2013-5-20,89,73,54,49,43,26,72,40,11,29.97,29.83,3,0,8,0.00
2013-5-21,82,69,58,51,45,31,67,44,16,29.90,29.79,5,2,12,0.00
2013-5-22,71,60,48,47,30,20,67,35,15,29.96,29.83,5,2,12,0.00
2013-5-23,73,60,48,46,41,31,79,52,22,29.95,29.85,5,1,12,0.00
2013-5-24,78,64,48,47,42,30,78,49,19,29.98,29.86,3,1,12,0.00
2013-5-25,77,63,51,49,46,43,76,55,32,29.97,29.89,3,1,6,0.00
2013-5-26,78,64,53,53,50,45,83,61,32,30.05,29.96,3,2,7,0.00
2013-5-27,67,60,53,56,51,47,93,73,58,30.06,29.97,4,2,9,0.01
2013-5-28,77,66,57,58,55,50,94,70,39,29.97,29.84,3,1,6,0.01
2013-5-29,81,68,57,57,53,44,90,61,29,29.90,29.80,4,1,8,0.01
2013-5-30,84,69,54,55,50,33,85,54,17,29.92,29.85,3,1,8,0.00
2013-5-31,91,72,52,54,48,42,88,49,19,29.96,29.83,4,1,7,0.00
2013-6-1,95,78,58,59,52,44,78,45,18,29.85,29.69,2,0,4,0.00
2013-6-2,96,79,60,58,54,48,81,47,20,29.69,29.56,2,0,2,0.00
2013-6-3,92,74,60,60,55,51,73,52,28,29.75,29.62,3,1,5,0.00
2013-6-4,83,68,56,58,54,51,84,63,41,29.86,29.74,4,2,8,0.00
2013-6-5,87,69,54,61,55,50,86,64,40,29.95,29.79,4,2,8,0.00
2013-6-6,92,73,55,63,57,50,86,60,36,29.88,29.73,3,1,7,0.00
2013-6-7,103,80,60,66,60,53,80,54,20,29.82,29.63,3,1,5,0.00
2013-6-8,106,86,67,66,62,56,83,49,20,29.67,29.56,3,1,5,0.00
2013-6-9,80,70,61,59,56,54,77,63,46,29.81,29.65,6,3,10,0.00
2013-6-10,73,64,58,56,54,53,84,70,52,29.91,29.78,5,2,10,0.00
2013-6-11,85,71,56,58,55,52,88,61,36,29.94,29.82,2,1,6,0.00
2013-6-12,87,73,58,56,51,41,80,50,20,29.91,29.83,4,1,7,0.00
2013-6-13,85,70,56,51,44,30,68,43,14,30.03,29.90,3,1,7,0.00
2013-6-14,87,72,56,49,45,39,71,41,19,29.93,29.75,4,1,8,0.00
2013-6-15,89,73,55,54,47,42,75,44,20,29.89,29.76,3,1,8,0.00
2013-6-16,91,74,57,54,50,45,74,47,21,29.99,29.88,2,1,7,0.00
2013-6-17,88,72,58,56,52,49,74,51,26,30.00,29.90,3,2,7,0.00
2013-6-18,79,66,58,54,51,48,83,61,35,29.96,29.85,5,2,8,0.00
2013-6-19,78,66,53,50,45,30,82,51,17,30.01,29.92,3,1,8,0.00
2013-6-20,84,70,52,51,47,38,82,49,19,29.94,29.84,2,1,5,0.00
2013-6-21,87,72,54,52,48,42,81,47,22,29.91,29.82,2,1,5,0.00
2013-6-22,93,76,56,53,49,34,83,45,13,29.86,29.73,3,1,4,0.00
2013-6-23,76,68,61,61,57,49,83,68,46,29.81,29.73,5,2,12,0.00
2013-6-24,69,64,62,63,60,57,96,87,73,29.89,29.75,2,1,12,0.19
2013-6-25,75,68,62,68,64,61,97,89,76,29.96,29.86,4,1,8,0.26
2013-6-26,87,75,62,67,63,59,96,70,42,30.00,29.92,3,1,6,0.00
2013-6-27,95,79,63,67,62,57,89,60,31,30.02,29.92,2,0,6,0.00
2013-6-28,102,85,66,69,63,56,92,55,22,29.96,29.80,2,0,4,0.00
2013-6-29,104,88,71,69,62,52,77,47,20,29.84,29.70,2,0,5,0.00
2013-6-30,105,88,69,65,62,55,78,46,20,29.76,29.65,2,0,4,0.00
2013-7-1,104,87,70,68,61,54,66,44,20,29.77,29.69,3,0,4,0.00
2013-7-2,104,92,78,68,63,55,67,40,26,29.81,29.71,3,1,6,0.00
2013-7-3,104,87,71,67,62,55,65,46,28,29.82,29.66,2,1,6,0.00
2013-7-4,106,90,76,69,64,56,69,46,20,29.68,29.54,2,1,5,0.00
2013-7-5,88,77,67,58,54,48,59,45,33,29.69,29.58,4,2,7,0.00
2013-7-6,89,74,58,60,55,50,83,55,32,29.74,29.64,2,1,6,0.00
2013-7-7,94,77,61,59,50,28,75,44,14,29.77,29.68,2,1,6,0.00
2013-7-8,94,76,60,57,49,38,76,44,16,29.89,29.77,3,1,5,0.00
2013-7-9,100,82,64,56,51,42,62,38,15,29.97,29.85,2,0,5,0.00
2013-7-10,98,81,66,59,51,38,65,39,14,29.89,29.78,3,1,6,0.00
2013-7-11,91,74,57,54,48,33,79,46,13,29.87,29.76,3,2,8,0.00
2013-7-12,89,73,56,57,53,49,86,55,26,29.88,29.77,3,1,6,0.00
2013-7-13,95,78,59,56,50,40,74,42,15,29.90,29.81,2,0,6,0.00
2013-7-14,95,78,62,56,51,46,64,43,19,29.92,29.78,2,1,4,0.00
2013-7-15,88,72,56,58,52,43,82,53,22,29.83,29.71,3,1,7,0.00
2013-7-16,80,66,55,56,54,52,89,66,40,29.97,29.79,3,2,7,0.00
2013-7-17,91,72,56,58,53,36,89,58,15,30.04,29.92,3,1,7,0.00
2013-7-18,97,77,57,58,52,37,87,48,13,29.99,29.83,2,0,7,0.00
2013-7-19,100,80,59,59,55,48,78,46,18,29.86,29.70,2,0,3,0.00
2013-7-20,100,81,63,62,57,54,72,47,25,29.77,29.61,3,1,5,0.00
2013-7-21,95,79,65,62,55,47,68,46,27,29.79,29.66,3,1,7,0.00
2013-7-22,94,78,66,58,52,40,68,44,18,29.90,29.80,3,1,7,0.00
2013-7-23,92,80,69,56,50,40,54,38,19,29.93,29.79,3,1,7,0.00
2013-7-24,98,82,65,62,56,48,67,43,26,29.91,29.78,3,1,4,0.00
2013-7-25,98,83,68,63,57,53,62,44,30,29.90,29.82,3,1,4,0.00
2013-7-26,96,78,63,62,56,52,71,49,30,29.99,29.86,3,2,5,0.00
2013-7-27,93,75,60,62,57,54,80,55,33,29.92,29.74,3,1,5,0.00
2013-7-28,90,74,61,63,56,50,80,56,33,29.79,29.68,3,2,8,0.00
2013-7-29,83,68,55,57,54,51,88,63,37,29.93,29.75,3,1,8,0.00
2013-7-30,62,62,62,53,53,53,72,72,72,29.93,29.93,1,1,4,0.00
2013-8-8,84,75,63,55,53,49,70,49,34,29.89,29.84,2,1,4,0.00
2013-8-9,83,68,56,58,55,52,90,66,36,29.92,29.84,3,1,7,0.00
2013-8-10,87,70,57,60,56,54,90,66,33,29.98,29.89,3,1,7,0.00
2013-8-11,90,73,57,60,56,53,92,61,30,29.97,29.83,2,1,6,0.00
2013-8-12,90,74,58,59,53,45,85,52,22,29.93,29.85,3,1,5,0.00
2013-8-13,94,76,57,56,52,46,79,47,19,29.94,29.82,2,0,6,0.00
2013-8-14,97,77,60,59,53,46,72,46,19,29.91,29.79,2,0,4,0.04
2013-8-15,95,78,60,63,59,51,86,56,23,29.90,29.81,3,1,5,0.00
2013-8-16,96,80,66,65,60,53,83,55,24,29.91,29.83,3,1,7,0.00
2013-8-17,95,78,63,62,56,51,72,48,25,29.91,29.75,2,1,3,0.00
2013-8-18,97,81,64,64,60,58,81,52,28,29.83,29.70,2,0,3,0.00
2013-8-19,100,84,71,66,62,58,76,51,27,29.83,29.69,4,0,6,0.00
2013-8-20,95,80,68,66,60,55,70,52,36,29.82,29.70,4,1,15,0.00
2013-8-21,90,74,62,60,55,47,76,54,27,29.86,29.76,4,2,15,0.00
2013-8-22,87,72,60,58,55,50,80,58,30,29.89,29.77,3,1,7,0.00
2013-8-23,89,71,57,58,55,53,88,61,30,29.86,29.70,3,1,6,0.00
2013-8-24,88,73,61,59,55,51,75,56,29,29.82,29.74,4,1,9,0.00
2013-8-25,87,73,62,64,60,58,89,66,40,29.89,29.80,3,1,9,0.00
2013-8-26,87,72,60,60,56,46,89,60,24,29.95,29.81,2,1,7,0.00
2013-8-27,91,74,57,59,54,51,86,54,27,29.85,29.72,2,0,5,0.00
2013-8-28,92,76,62,62,56,44,83,55,20,29.86,29.78,3,1,6,0.00
2013-8-29,91,76,62,63,59,50,90,60,25,29.99,29.85,3,1,7,0.00
2013-8-30,95,77,60,63,58,51,87,57,23,29.99,29.83,2,0,7,0.00
2013-8-31,94,78,61,60,54,44,81,47,20,29.91,29.80,2,1,4,0.00
2013-9-1,91,76,64,59,55,50,74,50,27,29.87,29.78,3,1,7,0.00
2013-9-2,75,70,66,68,64,59,95,80,65,29.91,29.82,2,0,5,0.13
2013-9-3,85,73,63,63,57,50,86,62,30,29.94,29.84,3,1,5,0.00
2013-9-4,87,72,61,60,56,45,85,61,23,29.98,29.85,3,1,5,0.00
2013-9-5,86,72,60,59,55,48,83,60,27,29.95,29.85,3,1,9,0.00
2013-9-6,91,72,54,57,52,41,91,56,18,29.94,29.78,3,1,9,0.00
2013-9-7,96,76,58,59,54,47,88,53,20,29.85,29.73,2,0,5,0.00
2013-9-8,97,78,59,58,54,46,85,51,18,29.81,29.67,2,0,4,0.00
2013-9-9,98,79,61,62,55,51,78,48,22,29.74,29.59,2,0,4,0.00
2013-9-10,89,75,64,61,57,52,82,56,37,29.82,29.63,3,1,5,0.00
2013-9-11,81,69,60,62,59,57,89,72,48,29.94,29.82,4,2,6,0.00
2013-9-12,87,72,61,63,60,57,90,68,37,29.93,29.78,3,1,7,0.00
2013-9-13,90,72,60,63,60,57,89,68,37,29.83,29.66,2,1,7,0.00
2013-9-14,88,72,60,62,57,54,82,61,40,29.75,29.62,3,1,4,0.00
2013-9-15,86,70,58,58,54,49,83,61,28,29.80,29.68,4,2,11,0.00
2013-9-16,87,71,59,61,57,53,91,65,33,29.84,29.69,3,1,11,0.00
2013-9-17,81,68,59,56,54,49,83,62,34,29.83,29.74,5,2,12,0.00
2013-9-18,84,68,56,55,49,44,85,56,26,29.88,29.75,3,1,12,0.00
2013-9-19,89,70,52,54,49,43,81,52,21,29.83,29.68,2,0,3,0.00
2013-9-20,82,68,56,60,52,45,80,58,38,29.81,29.70,5,1,8,0.00
2013-9-21,70,62,56,59,57,54,95,85,61,29.86,29.76,3,1,9,0.35
2013-9-22,72,61,50,56,52,49,98,77,45,29.97,29.86,3,0,9,0.01
2013-9-23,81,65,50,58,54,49,97,72,42,30.00,29.87,2,0,4,0.00
2013-9-24,78,68,60,58,55,51,81,65,39,29.94,29.80,4,2,7,0.00
2013-9-25,71,62,52,53,46,36,92,61,29,29.89,29.76,3,1,4,0.00
2013-9-26,74,62,50,44,41,38,72,49,28,29.94,29.78,4,2,12,0.00
2013-9-27,77,60,46,47,42,36,84,55,24,30.08,29.94,3,0,5,0.00
2013-9-28,82,66,48,49,44,37,88,51,21,30.07,29.94,3,0,5,0.00
2013-9-29,78,67,58,60,56,48,84,68,53,30.08,29.99,4,1,5,0.00
2013-9-30,78,68,61,62,60,58,89,75,57,30.04,29.90,3,1,6,0.00
2013-10-1,77,64,54,59,51,44,91,66,33,29.98,29.86,3,1,6,0.00
2013-10-2,79,62,49,54,48,39,93,63,27,29.97,29.88,2,0,4,0.00
2013-10-3,76,64,50,41,36,23,71,39,15,30.01,29.86,5,2,10,0.00
2013-10-4,82,67,54,42,34,27,65,32,17,30.08,29.96,4,1,10,0.00
2013-10-5,82,62,44,46,40,31,84,52,16,30.20,30.08,2,0,8,0.00
2013-10-6,82,63,45,48,43,33,88,55,17,30.13,29.97,2,0,4,0.00
2013-10-7,83,65,48,48,42,33,83,50,17,29.97,29.82,2,0,2,0.00
2013-10-8,75,60,47,47,43,39,83,58,28,29.87,29.64,2,0,4,0.00
2013-10-9,73,60,48,46,43,40,82,56,31,29.72,29.56,3,0,6,0.00
2013-10-10,72,60,49,49,46,44,84,62,37,29.96,29.72,5,1,12,0.00
2013-10-11,74,60,46,50,47,42,90,65,38,30.05,29.92,2,0,12,0.00
2013-10-12,75,60,46,49,46,43,91,63,32,29.98,29.83,2,0,3,0.00
2013-10-13,74,59,48,47,45,41,90,63,31,30.01,29.86,4,1,5,0.00
2013-10-14,54,52,51,46,45,44,80,75,70,30.01,29.99,0,0,0,0.00
2013-10-15,80,60,44,45,41,35,90,56,20,30.03,29.91,2,0,7,0.00
2013-10-16,79,60,44,49,43,38,88,58,24,30.10,29.96,1,0,3,0.00
2013-10-17,79,60,44,46,43,36,89,59,23,30.06,29.93,1,0,3,0.00
2013-10-18,80,61,45,48,43,39,89,58,24,30.04,29.94,3,0,3,0.00
2013-10-19,82,62,45,49,44,41,88,59,24,30.06,29.96,1,0,2,0.00
2013-10-20,81,61,44,48,44,41,90,60,24,29.99,29.85,2,0,4,0.00
2013-10-21,56,52,47,49,46,43,88,79,71,29.94,29.88,0,0,4,0.00
2013-10-22,82,62,46,49,46,40,90,61,23,29.99,29.86,2,0,4,0.00
2013-10-23,82,62,45,48,43,36,89,58,20,29.92,29.81,1,0,2,0.00
2013-10-24,72,58,47,52,48,43,91,70,45,30.04,29.89,2,0,4,0.00
2013-10-25,75,59,46,50,47,42,92,68,35,30.15,30.04,2,0,4,0.00
2013-10-26,78,59,45,50,46,42,92,66,32,30.14,29.98,1,0,4,0.00
2013-10-27,72,56,45,50,46,42,90,70,42,29.98,29.57,6,2,10,0.00
2013-10-28,63,55,46,48,44,41,92,69,47,29.83,29.57,4,1,10,0.00
2013-10-29,63,57,48,48,46,44,87,68,53,30.02,29.83,3,1,10,0.00
2013-10-30,66,52,40,46,43,38,95,74,41,30.14,30.02,2,0,5,0.00
2013-10-31,69,53,40,47,43,38,94,72,40,30.17,30.06,3,0,4,0.00
2013-11-1,74,58,48,47,45,42,86,67,32,30.09,29.99,0,0,4,0.00
2013-11-2,74,58,42,50,45,40,92,66,38,30.01,29.84,3,0,4,0.00
2013-11-3,64,54,45,40,33,30,63,45,29,30.01,29.87,4,1,8,0.00
2013-11-4,67,53,38,35,32,28,83,49,24,30.04,29.87,5,2,13,0.00
2013-11-5,68,53,37,39,35,30,82,54,28,30.22,30.04,2,0,2,0.00
2013-11-6,46,46,46,39,39,39,75,75,75,30.22,30.22,0,0,1,0.00
2013-11-8,74,64,49,46,41,36,79,46,29,30.05,29.92,1,0,3,0.00
2013-11-9,73,52,43,48,44,39,89,75,36,30.02,29.95,1,0,3,0.00
2013-11-10,74,56,42,46,42,40,91,65,32,30.09,30.01,2,0,4,0.00
2013-11-13,58,52,41,46,45,39,92,77,66,30.22,30.04,0,0,0,0.00
2013-11-14,67,55,47,50,46,42,90,72,49,30.07,29.81,3,0,6,0.00
2013-11-15,67,51,39,46,39,34,95,69,30,29.82,29.68,4,0,9,0.00
2013-11-16,62,48,42,44,39,36,84,71,46,29.91,29.73,5,1,9,0.00
2013-11-17,64,51,40,48,43,37,92,77,56,30.06,29.91,2,0,4,0.00
2013-11-18,52,52,51,46,46,46,82,81,80,30.09,30.08,2,1,3,0.00
2013-11-19,61,54,50,53,50,46,95,87,72,30.10,29.94,2,1,3,0.29
2013-11-20,56,55,54,55,54,52,97,96,94,29.95,29.83,4,2,7,0.57
2013-11-21,66,59,53,43,33,26,67,39,29,30.00,29.85,6,3,10,0.36
2013-11-22,70,49,42,31,25,20,66,41,16,30.04,29.95,8,2,9,0.00
2013-11-23,62,53,42,47,44,40,92,72,50,30.11,29.99,2,0,3,0.00
2013-11-24,62,47,37,45,41,36,94,80,54,30.24,30.11,1,0,3,0.00
2013-11-25,62,47,36,45,40,35,96,80,53,30.34,30.25,1,0,2,0.00
2013-11-26,61,47,37,46,42,36,96,83,53,30.28,30.06,1,0,2,0.00
2013-11-27,64,49,40,47,43,39,96,81,52,30.06,29.85,2,0,4,0.00
2013-11-28,68,52,39,46,42,38,95,73,37,30.06,29.87,1,0,4,0.00
2013-11-29,67,52,39,45,42,37,93,71,41,30.19,30.05,2,0,2,0.00
2013-12-3,54,46,36,30,26,22,64,46,28,29.91,29.80,5,1,0,0.00
2013-12-4,47,36,28,27,23,18,86,61,32,30.08,29.91,3,0,6,0.00
2013-12-5,47,35,24,27,22,18,92,65,32,30.17,30.07,2,0,4,0.00
2013-12-6,47,37,25,36,29,22,91,75,52,30.20,29.92,8,2,13,0.44
2013-12-7,43,36,28,37,32,26,95,85,54,30.24,29.90,8,2,10,0.04
2013-12-8,41,31,25,28,25,23,95,80,50,30.32,30.24,3,0,5,0.00
2013-12-9,47,32,22,30,25,20,94,79,46,30.44,30.31,3,0,5,0.00
2013-12-10,50,35,24,32,27,23,95,76,40,30.44,30.22,2,0,3,0.00
2013-12-11,54,44,32,34,31,29,90,64,42,30.25,30.19,2,0,4,0.00
2013-12-12,57,40,27,36,32,26,94,74,40,30.28,30.16,2,0,2,0.00
2013-12-13,57,42,28,35,32,27,95,72,41,30.32,30.23,3,0,3,0.00
2013-12-14,58,41,30,36,33,28,91,74,41,30.42,30.32,2,0,2,0.00
2013-12-15,60,42,29,37,33,28,94,74,39,30.38,30.25,2,0,2,0.00
2013-12-16,62,45,32,41,36,30,94,74,44,30.27,30.14,1,0,2,0.00
2013-12-17,55,39,34,41,36,33,94,87,58,30.20,30.05,2,0,2,0.00
2013-12-18,59,53,48,45,44,43,87,73,57,29.85,29.70,2,1,5,0.00
2013-12-19,60,48,39,44,34,24,96,63,31,29.89,29.67,6,2,10,0.00
2013-12-20,58,44,31,34,27,20,78,54,23,30.00,29.89,3,0,5,0.00
2013-12-21,58,45,34,39,34,31,88,68,43,30.10,29.97,3,1,6,0.00
2013-12-22,60,45,34,40,36,31,92,73,45,30.30,30.10,2,0,6,0.00
2013-12-23,62,46,35,42,38,32,92,74,46,30.41,30.30,2,0,6,0.00
2013-12-24,63,43,35,43,37,33,94,82,46,30.33,30.20,1,0,3,0.00
2013-12-25,62,46,34,44,38,32,92,77,49,30.32,30.20,2,0,4,0.00
2013-12-26,64,45,32,39,34,30,93,70,34,30.28,30.17,1,0,4,0.00
2013-12-27,58,43,32,39,35,30,91,74,46,30.27,30.12,2,0,4,0.00
2013-12-28,66,45,29,36,32,28,94,68,30,30.13,30.00,5,1,6,0.00
2013-12-29,62,45,32,40,34,29,89,70,40,30.20,30.09,1,0,0,0.00
2013-12-30,61,45,30,40,35,28,92,70,42,30.26,30.19,2,0,2,0.00
2013-12-31,62,46,36,38,36,32,88,70,38,30.27,30.14,2,0,2,0.00
2014-1-1,62,45,33,38,35,31,92,70,36,30.22,30.12,2,0,3,0.00
2014-1-2,64,46,33,41,36,31,92,71,38,30.19,30.05,2,0,3,0.00